createdAt,value
2018-09-23T00:00:27.830Z,100570.62
2018-09-23T00:01:34.084Z,100571.78
2018-09-23T00:02:40.367Z,100574.73
2018-09-23T00:03:46.652Z,100578.78
2018-09-23T00:04:52.924Z,100586.46
2018-09-23T00:05:59.216Z,100584.00
2018-09-23T00:07:06.110Z,100579.53
2018-09-23T00:08:12.391Z,100566.25
2018-09-23T00:09:18.660Z,100561.59
2018-09-23T00:10:24.888Z,100558.41
2018-09-23T00:11:31.195Z,100553.83
2018-09-23T00:12:37.440Z,100558.91
2018-09-23T00:13:43.829Z,100553.88
2018-09-23T00:14:49.474Z,100551.39
2018-09-23T00:15:55.358Z,100556.06
2018-09-23T00:17:01.644Z,100561.34
2018-09-23T00:18:07.556Z,100563.97
2018-09-23T00:19:13.814Z,100564.90
2018-09-23T00:20:20.070Z,100574.14
2018-09-23T00:21:26.391Z,100563.52
2018-09-23T00:22:32.644Z,100560.82
2018-09-23T00:23:38.907Z,100565.70
2018-09-23T00:24:46.055Z,100561.52
2018-09-23T00:25:52.320Z,100554.82
2018-09-23T00:26:58.556Z,100557.56
2018-09-23T00:28:04.247Z,100560.31
2018-09-23T00:29:10.602Z,100557.94
2018-09-23T00:30:16.837Z,100554.59
2018-09-23T00:31:23.097Z,100559.27
2018-09-23T00:32:29.338Z,100563.45
2018-09-23T00:33:35.606Z,100555.80
2018-09-23T00:34:41.846Z,100559.78
2018-09-23T00:35:49.011Z,100558.19
2018-09-23T00:36:55.337Z,100555.91
2018-09-23T00:38:01.587Z,100555.22
2018-09-23T00:39:07.535Z,100552.09
2018-09-23T00:40:13.799Z,100555.53
2018-09-23T00:41:20.059Z,100547.27
2018-09-23T00:42:26.312Z,100548.87
2018-09-23T00:43:32.572Z,100548.05
2018-09-23T00:44:38.893Z,100543.23
2018-09-23T00:45:44.860Z,100546.68
2018-09-23T00:46:51.165Z,100545.33
2018-09-23T00:47:57.412Z,100544.94
2018-09-23T00:49:03.741Z,100553.63
2018-09-23T00:50:10.027Z,100554.84
2018-09-23T00:51:16.269Z,100549.31
2018-09-23T00:52:22.533Z,100550.06
2018-09-23T00:53:28.782Z,100539.48
2018-09-23T00:54:34.744Z,100537.48
2018-09-23T00:55:40.644Z,100539.45
2018-09-23T00:56:46.892Z,100537.65
2018-09-23T00:57:53.159Z,100542.73
2018-09-23T00:58:59.442Z,100539.05
2018-09-23T01:00:04.980Z,100538.70
2018-09-23T01:01:11.278Z,100543.19
2018-09-23T01:02:17.489Z,100532.98
2018-09-23T01:03:23.735Z,100540.36
2018-09-23T01:04:30.006Z,100546.88
2018-09-23T01:05:36.284Z,100536.48
2018-09-23T01:06:42.252Z,100534.38
2018-09-23T01:07:48.522Z,100534.46
2018-09-23T01:08:55.708Z,100533.36
2018-09-23T01:10:01.982Z,100535.73
2018-09-23T01:11:08.426Z,100537.45
2018-09-23T01:12:14.724Z,100529.48
2018-09-23T01:13:20.676Z,100528.26
2018-09-23T01:14:26.983Z,100523.23
2018-09-23T01:15:33.272Z,100524.13
2018-09-23T01:16:39.521Z,100515.28
2018-09-23T01:17:45.812Z,100515.36
2018-09-23T01:18:52.063Z,100511.36
2018-09-23T01:19:58.320Z,100516.08
2018-09-23T01:21:09.724Z,100509.36
2018-09-23T01:22:15.627Z,100509.88
2018-09-23T01:23:21.932Z,100499.24
2018-09-23T01:24:28.217Z,100501.77
2018-09-23T01:25:34.485Z,100494.87
2018-09-23T01:26:40.727Z,100493.20
2018-09-23T01:27:46.698Z,100494.10
2018-09-23T01:28:52.979Z,100488.90
2018-09-23T01:29:59.227Z,100485.70
2018-09-23T01:31:05.119Z,100484.10
2018-09-23T01:32:11.373Z,100487.27
2018-09-23T01:33:17.625Z,100486.52
2018-09-23T01:34:23.914Z,100486.68
2018-09-23T01:35:29.920Z,100483.12
2018-09-23T01:36:36.172Z,100489.07
2018-09-23T01:37:42.142Z,100493.33
2018-09-23T01:38:48.186Z,100489.73
2018-09-23T01:39:54.449Z,100496.36
2018-09-23T01:41:00.706Z,100497.48
2018-09-23T01:42:06.633Z,100505.77
2018-09-23T01:43:12.870Z,100503.02
2018-09-23T01:44:19.119Z,100510.57
2018-09-23T01:45:25.392Z,100513.42
2018-09-23T01:46:31.646Z,100515.22
2018-09-23T01:47:37.683Z,100510.48
2018-09-23T01:48:43.960Z,100508.14
2018-09-23T01:49:50.247Z,100503.92
2018-09-23T01:50:56.565Z,100505.02
2018-09-23T01:52:02.821Z,100512.88
2018-09-23T01:53:09.051Z,100517.61
2018-09-23T01:54:15.350Z,100522.81
2018-09-23T01:55:21.631Z,100520.47
2018-09-23T01:56:27.934Z,100516.84
2018-09-23T01:57:34.156Z,100520.78
2018-09-23T01:58:40.442Z,100517.11
2018-09-23T01:59:46.728Z,100516.13
2018-09-23T02:00:53.010Z,100506.94
2018-09-23T02:01:59.286Z,100509.95
2018-09-23T02:03:05.173Z,100507.52
2018-09-23T02:04:11.484Z,100506.47
2018-09-23T02:05:18.663Z,100507.65
2018-09-23T02:06:24.669Z,100503.27
2018-09-23T02:07:30.937Z,100505.11
2018-09-23T02:08:37.204Z,100508.71
2018-09-23T02:09:43.487Z,100504.02
2018-09-23T02:10:49.777Z,100500.28
2018-09-23T02:11:56.048Z,100495.77
2018-09-23T02:13:02.366Z,100499.68
2018-09-23T02:14:08.342Z,100493.03
2018-09-23T02:15:14.626Z,100494.95
2018-09-23T02:16:20.879Z,100492.44
2018-09-23T02:17:27.177Z,100490.58
2018-09-23T02:18:33.469Z,100486.52
2018-09-23T02:19:39.743Z,100485.44
2018-09-23T02:20:45.999Z,100487.84
2018-09-23T02:21:52.242Z,100480.42
2018-09-23T02:22:58.506Z,100485.44
2018-09-23T02:24:04.441Z,100483.52
2018-09-23T02:25:10.714Z,100473.55
2018-09-23T02:26:17.186Z,100471.53
2018-09-23T02:27:23.427Z,100472.14
2018-09-23T02:28:29.705Z,100467.53
2018-09-23T02:29:36.909Z,100469.31
2018-09-23T02:30:43.125Z,100477.29
2018-09-23T02:31:49.403Z,100468.81
2018-09-23T02:32:55.667Z,100466.14
2018-09-23T02:34:01.569Z,100470.11
2018-09-23T02:35:07.506Z,100471.67
2018-09-23T02:36:13.788Z,100470.86
2018-09-23T02:37:20.070Z,100470.21
2018-09-23T02:38:26.317Z,100463.23
2018-09-23T02:39:32.606Z,100463.61
2018-09-23T02:40:38.938Z,100465.13
2018-09-23T02:41:45.219Z,100463.69
2018-09-23T02:42:51.487Z,100465.61
2018-09-23T02:43:57.712Z,100466.17
2018-09-23T02:45:03.626Z,100467.08
2018-09-23T02:46:10.007Z,100468.98
2018-09-23T02:47:16.288Z,100460.11
2018-09-23T02:48:22.574Z,100464.05
2018-09-23T02:49:28.831Z,100460.45
2018-09-23T02:50:35.126Z,100457.35
2018-09-23T02:51:41.408Z,100462.06
2018-09-23T02:52:47.658Z,100457.59
2018-09-23T02:53:53.915Z,100457.63
2018-09-23T02:55:00.221Z,100454.02
2018-09-23T02:56:06.461Z,100451.51
2018-09-23T02:57:13.622Z,100453.75
2018-09-23T02:58:20.790Z,100451.08
2018-09-23T02:59:27.026Z,100450.63
2018-09-23T03:00:33.292Z,100445.20
2018-09-23T03:01:39.532Z,100444.33
2018-09-23T03:02:45.766Z,100446.27
2018-09-23T03:03:52.004Z,100443.95
2018-09-23T03:04:58.310Z,100445.42
2018-09-23T03:06:04.389Z,100441.97
2018-09-23T03:07:10.680Z,100445.42
2018-09-23T03:08:17.819Z,100446.15
2018-09-23T03:09:24.051Z,100445.80
2018-09-23T03:10:30.335Z,100441.25
2018-09-23T03:11:36.599Z,100442.20
2018-09-23T03:12:42.889Z,100436.38
2018-09-23T03:13:49.163Z,100433.16
2018-09-23T03:14:55.483Z,100438.92
2018-09-23T03:16:01.759Z,100433.86
2018-09-23T03:17:08.001Z,100426.72
2018-09-23T03:18:14.293Z,100427.92
2018-09-23T03:20:32.630Z,100411.15
2018-09-23T03:21:38.892Z,100413.14
2018-09-23T03:22:45.170Z,100411.87
2018-09-23T03:23:51.405Z,100416.59
2018-09-23T03:24:57.723Z,100416.59
2018-09-23T03:26:04.052Z,100413.15
2018-09-23T03:27:10.325Z,100420.78
2018-09-23T03:28:16.587Z,100418.31
2018-09-23T03:29:22.881Z,100417.08
2018-09-23T03:30:29.156Z,100419.72
2018-09-23T03:31:35.396Z,100418.38
2018-09-23T03:32:41.847Z,100411.28
2018-09-23T03:33:48.129Z,100417.64
2018-09-23T03:34:54.389Z,100423.73
2018-09-23T03:36:00.439Z,100420.20
2018-09-23T03:37:10.807Z,100419.34
2018-09-23T03:38:17.059Z,100416.16
2018-09-23T03:39:23.578Z,100414.23
2018-09-23T03:40:30.139Z,100406.51
2018-09-23T03:41:36.727Z,100406.66
2018-09-23T03:42:42.843Z,100406.61
2018-09-23T03:43:49.113Z,100413.26
2018-09-23T03:44:55.407Z,100413.13
2018-09-23T03:46:01.711Z,100410.78
2018-09-23T03:47:07.989Z,100409.14
2018-09-23T03:48:14.347Z,100406.41
2018-09-23T03:49:20.370Z,100399.92
2018-09-23T03:50:27.639Z,100397.20
2018-09-23T03:51:34.805Z,100395.58
2018-09-23T03:52:41.073Z,100394.38
2018-09-23T03:53:47.317Z,100388.40
2018-09-23T03:54:53.613Z,100396.35
2018-09-23T03:55:59.903Z,100392.64
2018-09-23T03:57:06.207Z,100393.66
2018-09-23T03:58:12.515Z,100389.41
2018-09-23T03:59:18.862Z,100383.89
2018-09-23T04:00:25.165Z,100381.23
2018-09-23T04:01:32.301Z,100376.85
2018-09-23T04:02:38.557Z,100375.66
2018-09-23T04:03:44.826Z,100376.47
2018-09-23T04:04:51.103Z,100377.03
2018-09-23T04:05:57.172Z,100369.80
2018-09-23T04:07:03.466Z,100372.34
2018-09-23T04:08:09.812Z,100364.64
2018-09-23T04:09:16.206Z,100367.44
2018-09-23T04:10:22.454Z,100375.27
2018-09-23T04:11:28.749Z,100375.27
2018-09-23T04:12:35.022Z,100371.80
2018-09-23T04:13:41.299Z,100370.95
2018-09-23T04:14:47.583Z,100377.11
2018-09-23T04:15:53.857Z,100376.98
2018-09-23T04:17:00.123Z,100381.69
2018-09-23T04:18:06.402Z,100375.41
2018-09-23T04:19:12.655Z,100379.28
2018-09-23T04:20:19.044Z,100374.45
2018-09-23T04:21:25.343Z,100375.93
2018-09-23T04:22:31.372Z,100375.83
2018-09-23T04:23:37.297Z,100374.41
2018-09-23T04:24:43.521Z,100377.41
2018-09-23T04:25:49.784Z,100366.28
2018-09-23T04:26:56.036Z,100372.63
2018-09-23T04:28:02.937Z,100365.33
2018-09-23T04:29:09.320Z,100363.59
2018-09-23T04:30:15.573Z,100358.80
2018-09-23T04:31:21.831Z,100354.22
2018-09-23T04:32:28.088Z,100357.45
2018-09-23T04:33:34.346Z,100363.24
2018-09-23T04:34:40.616Z,100358.48
2018-09-23T04:35:46.982Z,100352.20
2018-09-23T04:36:53.216Z,100350.84
2018-09-23T04:37:59.458Z,100351.12
2018-09-23T04:39:05.025Z,100352.31
2018-09-23T04:40:11.275Z,100356.27
2018-09-23T04:41:17.568Z,100355.20
2018-09-23T04:42:23.971Z,100352.06
2018-09-23T04:43:30.258Z,100354.47
2018-09-23T04:44:36.509Z,100355.28
2018-09-23T04:45:42.760Z,100357.62
2018-09-23T04:46:49.022Z,100351.70
2018-09-23T04:47:55.379Z,100353.48
2018-09-23T04:49:01.656Z,100359.80
2018-09-23T04:50:07.648Z,100355.52
2018-09-23T04:51:13.967Z,100359.98
2018-09-23T04:52:20.249Z,100353.97
2018-09-23T04:53:26.225Z,100351.88
2018-09-23T04:54:32.506Z,100342.09
2018-09-23T04:55:38.784Z,100343.12
2018-09-23T04:56:45.049Z,100342.58
2018-09-23T04:57:51.008Z,100341.34
2018-09-23T04:58:57.294Z,100345.84
2018-09-23T05:00:03.569Z,100342.82
2018-09-23T05:01:09.872Z,100337.72
2018-09-23T05:02:16.127Z,100341.53
2018-09-23T05:03:22.373Z,100341.97
2018-09-23T05:04:28.658Z,100345.26
2018-09-23T05:05:34.911Z,100338.67
2018-09-23T05:06:41.194Z,100337.52
2018-09-23T05:07:47.482Z,100336.59
2018-09-23T05:08:53.783Z,100343.44
2018-09-23T05:10:00.008Z,100344.05
2018-09-23T05:11:06.316Z,100343.94
2018-09-23T05:12:12.550Z,100338.80
2018-09-23T05:13:18.587Z,100344.46
2018-09-23T05:14:24.812Z,100340.97
2018-09-23T05:15:31.106Z,100344.63
2018-09-23T05:16:37.376Z,100338.11
2018-09-23T05:17:43.697Z,100340.64
2018-09-23T05:18:49.975Z,100336.44
2018-09-23T05:19:56.298Z,100342.22
2018-09-23T05:21:02.603Z,100338.36
2018-09-23T05:22:08.645Z,100334.72
2018-09-23T05:23:14.930Z,100330.78
2018-09-23T05:24:21.295Z,100330.16
2018-09-23T05:25:27.565Z,100332.36
2018-09-23T05:26:33.882Z,100328.91
2018-09-23T05:27:40.132Z,100324.81
2018-09-23T05:28:46.409Z,100322.50
2018-09-23T05:29:52.717Z,100324.78
2018-09-23T05:30:58.999Z,100321.30
2018-09-23T05:32:05.267Z,100324.56
2018-09-23T05:33:11.500Z,100315.41
2018-09-23T05:34:17.763Z,100314.30
2018-09-23T05:35:24.032Z,100307.28
2018-09-23T05:36:30.578Z,100305.04
2018-09-23T05:37:37.303Z,100297.83
2018-09-23T05:38:45.376Z,100293.80
2018-09-23T05:39:53.661Z,100289.28
2018-09-23T05:41:02.106Z,100278.17
2018-09-23T05:42:08.917Z,100286.38
2018-09-23T05:43:16.001Z,100286.18
2018-09-23T05:44:24.458Z,100279.83
2018-09-23T05:45:32.670Z,100278.58
2018-09-23T05:46:40.831Z,100278.20
2018-09-23T05:47:49.903Z,100279.19
2018-09-23T05:48:57.308Z,100274.37
2018-09-23T05:50:04.668Z,100280.69
2018-09-23T05:51:11.553Z,100279.08
2018-09-23T05:52:17.821Z,100283.29
2018-09-23T05:53:24.171Z,100286.88
2018-09-23T05:54:30.499Z,100292.31
2018-09-23T05:55:36.771Z,100284.81
2018-09-23T05:56:43.413Z,100284.59
2018-09-23T05:57:50.248Z,100285.41
2018-09-23T05:58:56.790Z,100291.49
2018-09-23T06:00:03.387Z,100296.55
2018-09-23T06:01:10.558Z,100291.86
2018-09-23T06:02:17.349Z,100283.65
2018-09-23T06:03:23.646Z,100281.55
2018-09-23T06:04:30.246Z,100273.19
2018-09-23T06:05:36.577Z,100260.59
2018-09-23T06:06:43.107Z,100254.41
2018-09-23T06:07:49.654Z,100251.72
2018-09-23T06:08:56.181Z,100260.19
2018-09-23T06:10:02.995Z,100265.36
2018-09-23T06:11:09.592Z,100268.01
2018-09-23T06:12:16.239Z,100266.41
2018-09-23T06:13:22.717Z,100262.88
2018-09-23T06:14:30.252Z,100267.56
2018-09-23T06:15:37.084Z,100254.98
2018-09-23T06:16:43.624Z,100267.84
2018-09-23T06:17:49.988Z,100269.70
2018-09-23T06:18:56.459Z,100271.50
2018-09-23T06:20:03.376Z,100274.90
2018-09-23T06:21:10.498Z,100273.95
2018-09-23T06:22:16.992Z,100268.01
2018-09-23T06:23:23.636Z,100273.56
2018-09-23T06:24:30.458Z,100271.09
2018-09-23T06:25:36.710Z,100269.25
2018-09-23T06:26:43.023Z,100265.94
2018-09-23T06:27:49.369Z,100263.03
2018-09-23T06:28:55.986Z,100265.94
2018-09-23T06:30:02.682Z,100261.73
2018-09-23T06:31:09.404Z,100260.75
2018-09-23T06:32:15.954Z,100262.41
2018-09-23T06:33:22.695Z,100258.70
2018-09-23T06:34:29.320Z,100263.87
2018-09-23T06:35:35.908Z,100259.20
2018-09-23T06:36:43.055Z,100263.33
2018-09-23T06:37:49.508Z,100266.47
2018-09-23T06:38:56.179Z,100264.83
2018-09-23T06:40:02.669Z,100261.36
2018-09-23T06:41:09.264Z,100251.70
2018-09-23T06:42:16.192Z,100254.37
2018-09-23T06:43:23.063Z,100242.51
2018-09-23T06:44:29.931Z,100244.52
2018-09-23T06:45:36.428Z,100237.80
2018-09-23T06:46:43.122Z,100246.11
2018-09-23T06:47:49.613Z,100252.94
2018-09-23T06:48:57.332Z,100252.66
2018-09-23T06:50:03.756Z,100250.20
2018-09-23T06:51:10.128Z,100249.88
2018-09-23T06:52:16.592Z,100253.87
2018-09-23T06:53:23.068Z,100245.30
2018-09-23T06:54:29.676Z,100251.81
2018-09-23T06:55:36.179Z,100253.91
2018-09-23T06:56:42.859Z,100262.06
2018-09-23T06:57:49.533Z,100265.33
2018-09-23T06:58:56.119Z,100268.01
2018-09-23T07:00:02.743Z,100269.72
2018-09-23T07:01:09.335Z,100269.09
2018-09-23T07:02:16.745Z,100270.41
2018-09-23T07:03:23.274Z,100265.22
2018-09-23T07:04:30.028Z,100265.27
2018-09-23T07:05:36.787Z,100260.91
2018-09-23T07:06:43.250Z,100255.30
2018-09-23T07:07:49.869Z,100247.27
2018-09-23T07:08:56.360Z,100244.66
2018-09-23T07:10:02.663Z,100242.73
2018-09-23T07:11:08.792Z,100247.20
2018-09-23T07:12:15.405Z,100242.84
2018-09-23T07:13:22.342Z,100245.03
2018-09-23T07:14:28.866Z,100240.33
2018-09-23T07:15:35.832Z,100253.67
2018-09-23T07:16:42.456Z,100247.28
2018-09-23T07:17:48.996Z,100256.91
2018-09-23T07:18:55.744Z,100252.48
2018-09-23T07:20:02.210Z,100257.88
2018-09-23T07:21:08.820Z,100261.00
2018-09-23T07:22:15.644Z,100262.31
2018-09-23T07:23:22.733Z,100260.84
2018-09-23T07:24:29.141Z,100256.42
2018-09-23T07:25:36.563Z,100253.70
2018-09-23T07:26:44.172Z,100260.14
2018-09-23T07:27:51.378Z,100264.90
2018-09-23T07:28:58.168Z,100262.88
2018-09-23T07:30:04.029Z,100268.70
2018-09-23T07:31:10.681Z,100264.60
2018-09-23T07:32:17.219Z,100267.30
2018-09-23T07:33:23.992Z,100275.45
2018-09-23T07:34:30.336Z,100279.94
2018-09-23T07:35:37.482Z,100286.34
2018-09-23T07:36:43.830Z,100284.75
2018-09-23T07:37:51.146Z,100283.03
2018-09-23T07:38:57.494Z,100272.59
2018-09-23T07:40:04.279Z,100262.02
2018-09-23T07:41:10.844Z,100246.86
2018-09-23T07:42:17.629Z,100247.12
2018-09-23T07:43:24.312Z,100247.62
2018-09-23T07:44:30.973Z,100241.00
2018-09-23T07:45:37.451Z,100236.41
2018-09-23T07:46:43.696Z,100230.45
2018-09-23T07:47:50.091Z,100232.98
2018-09-23T07:48:56.667Z,100231.07
2018-09-23T07:50:03.775Z,100237.98
2018-09-23T07:51:10.430Z,100232.54
2018-09-23T07:52:17.255Z,100236.02
2018-09-23T07:53:23.828Z,100235.36
2018-09-23T07:54:30.459Z,100229.91
2018-09-23T07:55:36.944Z,100228.30
2018-09-23T07:56:43.557Z,100236.53
2018-09-23T07:57:50.077Z,100235.36
2018-09-23T07:58:56.865Z,100237.81
2018-09-23T08:00:03.291Z,100242.56
2018-09-23T08:01:09.722Z,100249.88
2018-09-23T08:02:16.325Z,100249.91
2018-09-23T08:03:23.294Z,100249.83
2018-09-23T08:04:29.855Z,100252.06
2018-09-23T08:05:37.329Z,100237.33
2018-09-23T08:06:46.466Z,100236.67
2018-09-23T08:07:53.585Z,100233.80
2018-09-23T08:09:00.047Z,100232.85
2018-09-23T08:10:05.761Z,100224.53
2018-09-23T08:11:12.226Z,100224.17
2018-09-23T08:12:19.321Z,100220.22
2018-09-23T08:13:26.109Z,100219.20
2018-09-23T08:14:33.516Z,100214.17
2018-09-23T08:15:40.800Z,100208.78
2018-09-23T08:16:50.279Z,100208.12
2018-09-23T08:17:56.920Z,100205.27
2018-09-23T08:19:03.500Z,100199.08
2018-09-23T08:20:10.283Z,100194.85
2018-09-23T08:21:17.194Z,100192.14
2018-09-23T08:22:24.002Z,100193.53
2018-09-23T08:23:30.554Z,100187.07
2018-09-23T08:24:37.133Z,100185.28
2018-09-23T08:25:43.719Z,100183.20
2018-09-23T08:26:50.415Z,100186.20
2018-09-23T08:27:57.152Z,100193.89
2018-09-23T08:29:03.649Z,100193.90
2018-09-23T08:30:10.229Z,100201.00
2018-09-23T08:31:16.788Z,100198.75
2018-09-23T08:32:23.035Z,100199.63
2018-09-23T08:33:29.554Z,100208.07
2018-09-23T08:34:36.222Z,100202.42
2018-09-23T08:35:42.940Z,100197.66
2018-09-23T08:36:49.703Z,100199.08
2018-09-23T08:37:56.442Z,100203.31
2018-09-23T08:39:03.036Z,100201.12
2018-09-23T08:40:09.669Z,100203.25
2018-09-23T08:41:16.363Z,100209.27
2018-09-23T08:42:23.136Z,100208.24
2018-09-23T08:43:30.129Z,100213.81
2018-09-23T08:44:37.906Z,100208.20
2018-09-23T08:45:44.753Z,100205.20
2018-09-23T08:46:51.368Z,100199.03
2018-09-23T08:47:58.230Z,100192.28
2018-09-23T08:49:04.936Z,100194.05
2018-09-23T08:50:11.682Z,100190.05
2018-09-23T08:51:18.274Z,100181.88
2018-09-23T08:52:25.038Z,100185.54
2018-09-23T08:53:31.435Z,100183.61
2018-09-23T08:54:37.957Z,100188.91
2018-09-23T08:55:45.011Z,100187.22
2018-09-23T08:56:51.811Z,100180.34
2018-09-23T08:57:58.823Z,100179.37
2018-09-23T08:59:06.400Z,100166.50
2018-09-23T09:00:12.778Z,100156.03
2018-09-23T09:01:19.964Z,100155.09
2018-09-23T09:02:26.959Z,100152.02
2018-09-23T09:03:34.644Z,100158.18
2018-09-23T09:04:41.889Z,100155.37
2018-09-23T09:05:49.891Z,100158.03
2018-09-23T09:06:58.453Z,100163.59
2018-09-23T09:08:06.293Z,100166.38
2018-09-23T09:09:13.285Z,100158.31
2018-09-23T09:10:20.034Z,100160.09
2018-09-23T09:11:27.852Z,100158.36
2018-09-23T09:12:35.612Z,100150.05
2018-09-23T09:13:42.059Z,100150.62
2018-09-23T09:14:48.350Z,100146.33
2018-09-23T09:15:55.595Z,100149.66
2018-09-23T09:17:02.572Z,100150.77
2018-09-23T09:18:10.345Z,100148.96
2018-09-23T09:19:19.023Z,100147.43
2018-09-23T09:20:26.055Z,100139.45
2018-09-23T09:21:32.984Z,100139.02
2018-09-23T09:22:40.010Z,100137.39
2018-09-23T09:23:47.440Z,100129.62
2018-09-23T09:24:56.131Z,100126.99
2018-09-23T09:26:03.540Z,100128.59
2018-09-23T09:27:13.176Z,100120.09
2018-09-23T09:28:22.246Z,100119.34
2018-09-23T09:29:29.326Z,100117.85
2018-09-23T09:30:35.992Z,100114.16
2018-09-23T09:31:45.966Z,100115.05
2018-09-23T09:32:58.369Z,100108.61
2018-09-23T09:34:06.182Z,100110.92
2018-09-23T09:35:14.421Z,100107.26
2018-09-23T09:36:20.695Z,100104.84
2018-09-23T09:37:26.979Z,100102.17
2018-09-23T09:38:33.305Z,100089.50
2018-09-23T09:39:39.812Z,100086.66
2018-09-23T09:40:46.128Z,100077.23
2018-09-23T09:41:52.501Z,100077.44
2018-09-23T09:42:58.763Z,100077.91
2018-09-23T09:44:04.908Z,100077.55
2018-09-23T09:45:11.340Z,100077.19
2018-09-23T09:46:17.767Z,100078.72
2018-09-23T09:47:24.041Z,100075.27
2018-09-23T09:48:30.317Z,100073.31
2018-09-23T09:49:37.237Z,100084.31
2018-09-23T09:50:43.548Z,100069.86
2018-09-23T09:51:49.844Z,100069.20
2018-09-23T09:52:56.229Z,100072.47
2018-09-23T09:54:02.578Z,100072.01
2018-09-23T09:55:09.810Z,100070.43
2018-09-23T09:56:16.294Z,100069.28
2018-09-23T09:57:22.813Z,100058.45
2018-09-23T09:58:29.176Z,100056.20
2018-09-23T09:59:35.603Z,100055.70
2018-09-23T10:00:41.866Z,100054.19
2018-09-23T10:01:48.125Z,100061.45
2018-09-23T10:02:54.404Z,100059.35
2018-09-23T10:04:00.712Z,100061.72
2018-09-23T10:05:06.508Z,100059.32
2018-09-23T10:06:12.787Z,100065.16
2018-09-23T10:07:19.084Z,100065.36
2018-09-23T10:08:25.399Z,100056.09
2018-09-23T10:09:31.856Z,100056.44
2018-09-23T10:10:38.205Z,100053.47
2018-09-23T10:11:44.469Z,100043.19
2018-09-23T10:12:50.753Z,100040.82
2018-09-23T10:13:57.040Z,100036.69
2018-09-23T10:15:03.347Z,100032.97
2018-09-23T10:16:09.612Z,100030.74
2018-09-23T10:17:15.882Z,100027.01
2018-09-23T10:18:22.177Z,100034.27
2018-09-23T10:19:28.470Z,100030.06
2018-09-23T10:20:34.753Z,100030.21
2018-09-23T10:21:41.050Z,100031.73
2018-09-23T10:22:47.360Z,100018.81
2018-09-23T10:23:53.878Z,100017.28
2018-09-23T10:25:00.429Z,100015.81
2018-09-23T10:26:06.689Z,100009.09
2018-09-23T10:27:12.949Z,100004.16
2018-09-23T10:28:19.214Z,99997.30
2018-09-23T10:29:25.553Z,99999.61
2018-09-23T10:30:31.907Z,99986.77
2018-09-23T10:31:38.205Z,99990.92
2018-09-23T10:32:44.494Z,99974.55
2018-09-23T10:33:50.805Z,99976.70
2018-09-23T10:34:57.087Z,99965.60
2018-09-23T10:36:03.415Z,99965.19
2018-09-23T10:37:09.844Z,99959.11
2018-09-23T10:38:16.433Z,99959.91
2018-09-23T10:39:22.716Z,99965.77
2018-09-23T10:40:30.324Z,99961.89
2018-09-23T10:41:36.747Z,99956.70
2018-09-23T10:42:43.002Z,99950.91
2018-09-23T10:43:49.308Z,99949.56
2018-09-23T10:44:55.644Z,99946.27
2018-09-23T10:46:02.517Z,99942.86
2018-09-23T10:47:09.489Z,99941.27
2018-09-23T10:48:15.832Z,99937.28
2018-09-23T10:49:22.104Z,99936.09
2018-09-23T10:50:28.369Z,99931.29
2018-09-23T10:51:34.722Z,99928.02
2018-09-23T10:52:40.960Z,99923.69
2018-09-23T10:53:47.588Z,99928.14
2018-09-23T10:54:54.878Z,99925.78
2018-09-23T10:56:04.136Z,99926.48
2018-09-23T10:57:11.539Z,99921.91
2018-09-23T10:58:19.086Z,99927.13
2018-09-23T10:59:26.067Z,99919.75
2018-09-23T11:00:32.959Z,99915.80
2018-09-23T11:01:43.883Z,99905.61
2018-09-23T11:02:50.977Z,99901.05
2018-09-23T11:03:58.092Z,99900.52
2018-09-23T11:05:05.434Z,99888.23
2018-09-23T11:06:11.941Z,99890.15
2018-09-23T11:07:21.580Z,99889.31
2018-09-23T11:08:28.160Z,99886.50
2018-09-23T11:09:34.562Z,99880.27
2018-09-23T11:10:41.072Z,99870.95
2018-09-23T11:11:48.699Z,99871.52
2018-09-23T11:12:55.310Z,99870.58
2018-09-23T11:14:02.313Z,99863.19
2018-09-23T11:15:08.587Z,99858.52
2018-09-23T11:16:14.912Z,99848.48
2018-09-23T11:17:21.173Z,99850.36
2018-09-23T11:18:27.505Z,99835.22
2018-09-23T11:19:34.656Z,99830.87
2018-09-23T11:20:40.960Z,99833.45
2018-09-23T11:21:47.240Z,99824.47
2018-09-23T11:22:53.550Z,99834.06
2018-09-23T11:24:00.588Z,99837.27
2018-09-23T11:25:06.527Z,99836.11
2018-09-23T11:26:13.512Z,99834.27
2018-09-23T11:27:19.396Z,99832.50
2018-09-23T11:28:25.624Z,99821.56
2018-09-23T11:29:31.858Z,99812.79
2018-09-23T11:30:37.850Z,99814.67
2018-09-23T11:31:44.304Z,99812.03
2018-09-23T11:32:50.583Z,99806.00
2018-09-23T11:33:56.845Z,99810.84
2018-09-23T11:35:03.132Z,99805.03
2018-09-23T11:36:09.391Z,99797.34
2018-09-23T11:37:15.627Z,99793.70
2018-09-23T11:38:21.887Z,99783.02
2018-09-23T11:39:28.121Z,99782.74
2018-09-23T11:40:34.401Z,99778.02
2018-09-23T11:41:40.459Z,99777.02
2018-09-23T11:42:46.693Z,99773.16
2018-09-23T11:43:53.288Z,99762.56
2018-09-23T11:44:59.602Z,99763.37
2018-09-23T11:46:06.134Z,99765.03
2018-09-23T11:47:12.459Z,99765.12
2018-09-23T11:48:18.822Z,99764.53
2018-09-23T11:49:25.203Z,99767.75
2018-09-23T11:50:31.658Z,99766.98
2018-09-23T11:51:38.225Z,99769.34
2018-09-23T11:52:44.584Z,99766.99
2018-09-23T11:53:51.006Z,99760.72
2018-09-23T11:54:57.752Z,99750.23
2018-09-23T11:56:04.296Z,99730.91
2018-09-23T11:57:10.947Z,99711.59
2018-09-23T11:58:17.402Z,99709.26
2018-09-23T11:59:23.869Z,99702.59
2018-09-23T12:00:30.245Z,99706.59
2018-09-23T12:01:36.591Z,99704.39
2018-09-23T12:02:42.658Z,99700.66
2018-09-23T12:03:49.147Z,99702.05
2018-09-23T12:04:55.391Z,99701.59
2018-09-23T12:06:01.657Z,99698.83
2018-09-23T12:07:07.977Z,99696.21
2018-09-23T12:08:14.325Z,99674.81
2018-09-23T12:09:20.588Z,99670.63
2018-09-23T12:10:26.941Z,99652.64
2018-09-23T12:11:33.342Z,99648.75
2018-09-23T12:12:39.646Z,99644.09
2018-09-23T12:13:45.890Z,99640.69
2018-09-23T12:14:52.243Z,99633.38
2018-09-23T12:15:58.682Z,99635.27
2018-09-23T12:17:05.292Z,99627.37
2018-09-23T12:18:11.236Z,99629.64
2018-09-23T12:19:17.509Z,99628.80
2018-09-23T12:20:24.032Z,99630.61
2018-09-23T12:21:30.041Z,99626.52
2018-09-23T12:22:36.318Z,99622.28
2018-09-23T12:23:42.581Z,99617.24
2018-09-23T12:24:48.829Z,99603.16
2018-09-23T12:25:55.180Z,99602.09
2018-09-23T12:27:01.630Z,99596.19
2018-09-23T12:28:07.877Z,99587.31
2018-09-23T12:29:14.115Z,99581.12
2018-09-23T12:30:20.384Z,99567.22
2018-09-23T12:31:26.676Z,99566.13
2018-09-23T12:32:32.959Z,99558.55
2018-09-23T12:33:39.255Z,99558.14
2018-09-23T12:34:45.631Z,99556.70
2018-09-23T12:35:52.123Z,99549.07
2018-09-23T12:36:58.094Z,99541.38
2018-09-23T12:38:04.419Z,99536.96
2018-09-23T12:39:10.725Z,99534.34
2018-09-23T12:40:16.995Z,99530.92
2018-09-23T12:41:23.272Z,99526.73
2018-09-23T12:42:29.577Z,99526.21
2018-09-23T12:43:35.891Z,99525.97